sensor_id;sensor_type;location;lat;lon;timestamp;P1;durP1;ratioP1;P2;durP2;ratioP2
70213;SDS011;60138;55.808;37.078;2023-05-07T00:01:29;11.43;;;6.40;;
70213;SDS011;60138;55.808;37.078;2023-05-07T00:03:55;14.63;;;6.20;;
70213;SDS011;60138;55.808;37.078;2023-05-07T00:06:20;10.03;;;5.77;;
70213;SDS011;60138;55.808;37.078;2023-05-07T00:08:46;10.23;;;5.80;;
70213;SDS011;60138;55.808;37.078;2023-05-07T00:11:12;10.07;;;5.53;;
70213;SDS011;60138;55.808;37.078;2023-05-07T00:13:38;11.65;;;6.05;;
70213;SDS011;60138;55.808;37.078;2023-05-07T00:16:03;15.68;;;7.03;;
70213;SDS011;60138;55.808;37.078;2023-05-07T00:18:30;9.63;;;5.72;;
70213;SDS011;60138;55.808;37.078;2023-05-07T00:20:56;14.83;;;5.40;;
70213;SDS011;60138;55.808;37.078;2023-05-07T00:23:22;12.95;;;6.15;;
70213;SDS011;60138;55.808;37.078;2023-05-07T00:25:48;7.55;;;5.25;;
70213;SDS011;60138;55.808;37.078;2023-05-07T00:28:14;17.20;;;7.07;;
70213;SDS011;60138;55.808;37.078;2023-05-07T00:30:39;17.23;;;7.80;;
70213;SDS011;60138;55.808;37.078;2023-05-07T00:33:05;17.10;;;7.63;;
70213;SDS011;60138;55.808;37.078;2023-05-07T00:35:31;17.50;;;7.55;;
70213;SDS011;60138;55.808;37.078;2023-05-07T00:37:57;14.60;;;7.30;;
70213;SDS011;60138;55.808;37.078;2023-05-07T00:40:23;17.83;;;8.02;;
70213;SDS011;60138;55.808;37.078;2023-05-07T00:42:49;15.17;;;7.43;;
70213;SDS011;60138;55.808;37.078;2023-05-07T00:45:15;11.70;;;7.25;;
70213;SDS011;60138;55.808;37.078;2023-05-07T00:47:41;10.00;;;6.23;;
70213;SDS011;60138;55.808;37.078;2023-05-07T00:50:07;9.30;;;5.45;;
70213;SDS011;60138;55.808;37.078;2023-05-07T00:52:34;10.95;;;6.00;;
70213;SDS011;60138;55.808;37.078;2023-05-07T00:55:01;12.40;;;6.33;;
70213;SDS011;60138;55.808;37.078;2023-05-07T00:57:32;15.88;;;6.80;;
70213;SDS011;60138;55.808;37.078;2023-05-07T01:00:02;19.67;;;7.75;;
70213;SDS011;60138;55.808;37.078;2023-05-07T01:02:31;12.80;;;8.57;;
70213;SDS011;60138;55.808;37.078;2023-05-07T01:04:57;13.90;;;8.25;;
70213;SDS011;60138;55.808;37.078;2023-05-07T01:07:23;12.27;;;7.63;;
70213;SDS011;60138;55.808;37.078;2023-05-07T01:09:49;12.77;;;7.63;;
70213;SDS011;60138;55.808;37.078;2023-05-07T01:12:15;12.55;;;8.02;;
70213;SDS011;60138;55.808;37.078;2023-05-07T01:14:41;10.60;;;8.65;;
70213;SDS011;60138;55.808;37.078;2023-05-07T01:17:07;13.15;;;7.22;;
70213;SDS011;60138;55.808;37.078;2023-05-07T01:19:33;12.73;;;7.82;;
70213;SDS011;60138;55.808;37.078;2023-05-07T01:22:03;9.97;;;6.73;;
70213;SDS011;60138;55.808;37.078;2023-05-07T01:24:41;9.20;;;6.50;;
70213;SDS011;60138;55.808;37.078;2023-05-07T01:27:08;8.23;;;5.88;;
70213;SDS011;60138;55.808;37.078;2023-05-07T01:29:35;8.67;;;6.03;;
70213;SDS011;60138;55.808;37.078;2023-05-07T01:32:01;9.00;;;7.00;;
70213;SDS011;60138;55.808;37.078;2023-05-07T01:34:28;10.05;;;6.05;;
70213;SDS011;60138;55.808;37.078;2023-05-07T01:36:57;9.63;;;6.47;;
70213;SDS011;60138;55.808;37.078;2023-05-07T01:39:24;10.30;;;6.75;;
70213;SDS011;60138;55.808;37.078;2023-05-07T01:41:53;12.77;;;7.15;;
70213;SDS011;60138;55.808;37.078;2023-05-07T01:44:23;8.77;;;5.77;;
70213;SDS011;60138;55.808;37.078;2023-05-07T01:46:49;8.98;;;6.00;;
70213;SDS011;60138;55.808;37.078;2023-05-07T01:49:15;9.63;;;6.30;;
70213;SDS011;60138;55.808;37.078;2023-05-07T01:51:42;10.37;;;6.23;;
70213;SDS011;60138;55.808;37.078;2023-05-07T01:54:08;9.82;;;6.13;;
70213;SDS011;60138;55.808;37.078;2023-05-07T01:56:35;9.90;;;5.85;;
70213;SDS011;60138;55.808;37.078;2023-05-07T01:59:02;12.20;;;5.83;;
70213;SDS011;60138;55.808;37.078;2023-05-07T02:01:28;9.68;;;5.95;;
70213;SDS011;60138;55.808;37.078;2023-05-07T02:03:54;10.75;;;6.38;;
70213;SDS011;60138;55.808;37.078;2023-05-07T02:06:23;10.03;;;5.80;;
70213;SDS011;60138;55.808;37.078;2023-05-07T02:08:53;7.00;;;6.07;;
70213;SDS011;60138;55.808;37.078;2023-05-07T02:11:19;8.23;;;5.78;;
70213;SDS011;60138;55.808;37.078;2023-05-07T02:13:45;8.57;;;6.77;;
70213;SDS011;60138;55.808;37.078;2023-05-07T02:16:11;10.85;;;7.35;;
70213;SDS011;60138;55.808;37.078;2023-05-07T02:18:38;11.30;;;6.30;;
70213;SDS011;60138;55.808;37.078;2023-05-07T02:21:04;10.00;;;6.97;;
70213;SDS011;60138;55.808;37.078;2023-05-07T02:23:29;10.18;;;6.43;;
70213;SDS011;60138;55.808;37.078;2023-05-07T02:25:55;10.02;;;7.35;;
70213;SDS011;60138;55.808;37.078;2023-05-07T02:28:21;12.60;;;7.13;;
70213;SDS011;60138;55.808;37.078;2023-05-07T02:30:54;10.55;;;7.38;;
70213;SDS011;60138;55.808;37.078;2023-05-07T02:33:20;10.38;;;6.15;;
70213;SDS011;60138;55.808;37.078;2023-05-07T02:35:47;12.87;;;6.40;;
70213;SDS011;60138;55.808;37.078;2023-05-07T02:38:14;14.20;;;7.07;;
70213;SDS011;60138;55.808;37.078;2023-05-07T02:40:40;14.25;;;6.70;;
70213;SDS011;60138;55.808;37.078;2023-05-07T02:43:06;12.83;;;6.60;;
70213;SDS011;60138;55.808;37.078;2023-05-07T02:45:32;15.32;;;7.28;;
70213;SDS011;60138;55.808;37.078;2023-05-07T02:47:59;10.85;;;6.95;;
70213;SDS011;60138;55.808;37.078;2023-05-07T02:50:25;13.85;;;6.65;;
70213;SDS011;60138;55.808;37.078;2023-05-07T02:52:51;10.93;;;6.43;;
70213;SDS011;60138;55.808;37.078;2023-05-07T02:55:17;9.57;;;5.63;;
70213;SDS011;60138;55.808;37.078;2023-05-07T02:57:43;11.45;;;6.82;;
70213;SDS011;60138;55.808;37.078;2023-05-07T03:00:16;10.33;;;6.90;;
70213;SDS011;60138;55.808;37.078;2023-05-07T03:02:54;9.00;;;6.30;;
70213;SDS011;60138;55.808;37.078;2023-05-07T03:05:20;11.03;;;6.57;;
70213;SDS011;60138;55.808;37.078;2023-05-07T03:07:45;9.77;;;6.32;;
70213;SDS011;60138;55.808;37.078;2023-05-07T03:10:12;10.32;;;6.38;;
70213;SDS011;60138;55.808;37.078;2023-05-07T03:12:39;9.07;;;7.30;;
70213;SDS011;60138;55.808;37.078;2023-05-07T03:15:05;10.07;;;6.88;;
70213;SDS011;60138;55.808;37.078;2023-05-07T03:17:31;8.90;;;6.63;;
70213;SDS011;60138;55.808;37.078;2023-05-07T03:19:57;10.30;;;6.20;;
70213;SDS011;60138;55.808;37.078;2023-05-07T03:22:24;9.25;;;5.90;;
70213;SDS011;60138;55.808;37.078;2023-05-07T03:24:49;9.83;;;6.17;;
70213;SDS011;60138;55.808;37.078;2023-05-07T03:27:15;8.38;;;6.35;;
70213;SDS011;60138;55.808;37.078;2023-05-07T03:29:42;9.65;;;5.97;;
70213;SDS011;60138;55.808;37.078;2023-05-07T03:32:07;9.83;;;6.10;;
70213;SDS011;60138;55.808;37.078;2023-05-07T03:34:34;10.70;;;6.20;;
70213;SDS011;60138;55.808;37.078;2023-05-07T03:37:00;9.57;;;6.03;;
70213;SDS011;60138;55.808;37.078;2023-05-07T03:39:25;7.78;;;5.82;;
70213;SDS011;60138;55.808;37.078;2023-05-07T03:41:51;11.85;;;6.18;;
70213;SDS011;60138;55.808;37.078;2023-05-07T03:44:18;6.93;;;4.67;;
70213;SDS011;60138;55.808;37.078;2023-05-07T03:46:44;9.68;;;6.20;;
70213;SDS011;60138;55.808;37.078;2023-05-07T03:49:10;10.52;;;6.95;;
70213;SDS011;60138;55.808;37.078;2023-05-07T03:51:36;12.10;;;6.77;;
70213;SDS011;60138;55.808;37.078;2023-05-07T03:54:03;13.13;;;7.78;;
70213;SDS011;60138;55.808;37.078;2023-05-07T03:56:31;12.25;;;7.20;;
70213;SDS011;60138;55.808;37.078;2023-05-07T03:58:58;9.65;;;6.60;;
70213;SDS011;60138;55.808;37.078;2023-05-07T04:01:25;9.40;;;6.30;;
70213;SDS011;60138;55.808;37.078;2023-05-07T04:03:51;12.45;;;7.35;;
70213;SDS011;60138;55.808;37.078;2023-05-07T04:06:17;10.20;;;6.80;;
70213;SDS011;60138;55.808;37.078;2023-05-07T04:08:45;5.55;;;3.95;;
70213;SDS011;60138;55.808;37.078;2023-05-07T04:11:12;7.85;;;6.03;;
70213;SDS011;60138;55.808;37.078;2023-05-07T04:13:39;9.65;;;6.22;;
70213;SDS011;60138;55.808;37.078;2023-05-07T04:16:07;11.27;;;6.13;;
70213;SDS011;60138;55.808;37.078;2023-05-07T04:18:34;8.38;;;6.07;;
70213;SDS011;60138;55.808;37.078;2023-05-07T04:21:00;8.00;;;5.47;;
70213;SDS011;60138;55.808;37.078;2023-05-07T04:23:26;8.80;;;5.28;;
70213;SDS011;60138;55.808;37.078;2023-05-07T04:25:53;6.55;;;4.63;;
70213;SDS011;60138;55.808;37.078;2023-05-07T04:28:28;6.90;;;5.20;;
70213;SDS011;60138;55.808;37.078;2023-05-07T04:30:53;6.68;;;5.55;;
70213;SDS011;60138;55.808;37.078;2023-05-07T04:33:20;7.18;;;5.75;;
70213;SDS011;60138;55.808;37.078;2023-05-07T04:35:48;7.13;;;5.23;;
70213;SDS011;60138;55.808;37.078;2023-05-07T04:38:14;5.18;;;3.88;;
70213;SDS011;60138;55.808;37.078;2023-05-07T04:40:40;5.45;;;4.32;;
70213;SDS011;60138;55.808;37.078;2023-05-07T04:43:08;4.28;;;3.03;;
70213;SDS011;60138;55.808;37.078;2023-05-07T04:45:39;5.35;;;4.55;;
70213;SDS011;60138;55.808;37.078;2023-05-07T04:48:05;6.25;;;4.22;;
70213;SDS011;60138;55.808;37.078;2023-05-07T04:50:32;6.90;;;4.50;;
70213;SDS011;60138;55.808;37.078;2023-05-07T04:53:00;5.70;;;4.50;;
70213;SDS011;60138;55.808;37.078;2023-05-07T04:55:26;6.03;;;4.23;;
70213;SDS011;60138;55.808;37.078;2023-05-07T04:57:52;5.15;;;4.35;;
70213;SDS011;60138;55.808;37.078;2023-05-07T05:00:19;4.55;;;4.00;;
70213;SDS011;60138;55.808;37.078;2023-05-07T05:02:47;4.65;;;3.83;;
70213;SDS011;60138;55.808;37.078;2023-05-07T05:05:16;5.75;;;4.32;;
70213;SDS011;60138;55.808;37.078;2023-05-07T05:07:44;4.55;;;3.88;;
70213;SDS011;60138;55.808;37.078;2023-05-07T05:10:09;3.87;;;3.47;;
70213;SDS011;60138;55.808;37.078;2023-05-07T05:12:38;5.72;;;4.05;;
70213;SDS011;60138;55.808;37.078;2023-05-07T05:15:04;5.28;;;3.42;;
70213;SDS011;60138;55.808;37.078;2023-05-07T05:17:31;4.78;;;4.28;;
70213;SDS011;60138;55.808;37.078;2023-05-07T05:19:57;7.90;;;3.97;;
70213;SDS011;60138;55.808;37.078;2023-05-07T05:22:24;7.68;;;3.40;;
70213;SDS011;60138;55.808;37.078;2023-05-07T05:24:50;4.90;;;3.50;;
70213;SDS011;60138;55.808;37.078;2023-05-07T05:27:15;5.17;;;3.47;;
70213;SDS011;60138;55.808;37.078;2023-05-07T05:29:41;3.90;;;3.42;;
70213;SDS011;60138;55.808;37.078;2023-05-07T05:32:07;3.10;;;2.80;;
70213;SDS011;60138;55.808;37.078;2023-05-07T05:34:33;3.95;;;3.60;;
70213;SDS011;60138;55.808;37.078;2023-05-07T05:36:59;3.88;;;3.50;;
70213;SDS011;60138;55.808;37.078;2023-05-07T05:39:25;3.90;;;3.17;;
70213;SDS011;60138;55.808;37.078;2023-05-07T05:41:51;3.90;;;3.50;;
70213;SDS011;60138;55.808;37.078;2023-05-07T05:44:17;5.93;;;3.65;;
70213;SDS011;60138;55.808;37.078;2023-05-07T05:46:43;6.03;;;4.03;;
70213;SDS011;60138;55.808;37.078;2023-05-07T05:49:08;5.00;;;3.37;;
70213;SDS011;60138;55.808;37.078;2023-05-07T05:51:34;5.10;;;3.63;;
70213;SDS011;60138;55.808;37.078;2023-05-07T05:54:00;3.85;;;3.45;;
70213;SDS011;60138;55.808;37.078;2023-05-07T05:56:26;5.53;;;4.40;;
70213;SDS011;60138;55.808;37.078;2023-05-07T05:58:52;3.97;;;3.58;;
70213;SDS011;60138;55.808;37.078;2023-05-07T06:01:18;4.13;;;3.72;;
70213;SDS011;60138;55.808;37.078;2023-05-07T06:03:44;4.15;;;3.40;;
70213;SDS011;60138;55.808;37.078;2023-05-07T06:06:13;4.75;;;2.80;;
70213;SDS011;60138;55.808;37.078;2023-05-07T06:08:39;5.80;;;3.30;;
70213;SDS011;60138;55.808;37.078;2023-05-07T06:11:04;4.70;;;3.10;;
70213;SDS011;60138;55.808;37.078;2023-05-07T06:13:33;5.25;;;3.30;;
70213;SDS011;60138;55.808;37.078;2023-05-07T06:15:59;9.85;;;3.78;;
70213;SDS011;60138;55.808;37.078;2023-05-07T06:18:25;9.00;;;5.23;;
70213;SDS011;60138;55.808;37.078;2023-05-07T06:20:51;6.30;;;4.03;;
70213;SDS011;60138;55.808;37.078;2023-05-07T06:23:23;5.78;;;3.75;;
70213;SDS011;60138;55.808;37.078;2023-05-07T06:25:49;4.88;;;2.97;;
70213;SDS011;60138;55.808;37.078;2023-05-07T06:28:17;3.90;;;3.25;;
70213;SDS011;60138;55.808;37.078;2023-05-07T06:30:43;4.00;;;3.20;;
70213;SDS011;60138;55.808;37.078;2023-05-07T06:33:09;4.57;;;3.63;;
70213;SDS011;60138;55.808;37.078;2023-05-07T06:35:35;4.05;;;2.70;;
70213;SDS011;60138;55.808;37.078;2023-05-07T06:38:00;5.18;;;3.50;;
70213;SDS011;60138;55.808;37.078;2023-05-07T06:40:28;4.32;;;3.85;;
70213;SDS011;60138;55.808;37.078;2023-05-07T06:42:55;3.80;;;3.03;;
70213;SDS011;60138;55.808;37.078;2023-05-07T06:45:41;7.05;;;3.28;;
70213;SDS011;60138;55.808;37.078;2023-05-07T06:48:08;4.72;;;3.47;;
70213;SDS011;60138;55.808;37.078;2023-05-07T06:50:43;3.42;;;3.13;;
70213;SDS011;60138;55.808;37.078;2023-05-07T06:53:10;4.60;;;3.80;;
70213;SDS011;60138;55.808;37.078;2023-05-07T06:55:36;5.10;;;3.10;;
70213;SDS011;60138;55.808;37.078;2023-05-07T06:58:02;3.25;;;2.80;;
70213;SDS011;60138;55.808;37.078;2023-05-07T07:00:28;6.95;;;3.50;;
70213;SDS011;60138;55.808;37.078;2023-05-07T07:02:55;14.93;;;4.33;;
70213;SDS011;60138;55.808;37.078;2023-05-07T07:05:23;6.10;;;3.35;;
70213;SDS011;60138;55.808;37.078;2023-05-07T07:07:49;30.50;;;8.02;;
70213;SDS011;60138;55.808;37.078;2023-05-07T07:10:15;12.87;;;6.50;;
70213;SDS011;60138;55.808;37.078;2023-05-07T07:12:41;10.50;;;3.90;;
70213;SDS011;60138;55.808;37.078;2023-05-07T07:15:07;17.60;;;4.00;;
70213;SDS011;60138;55.808;37.078;2023-05-07T07:17:33;6.72;;;2.95;;
70213;SDS011;60138;55.808;37.078;2023-05-07T07:19:59;3.63;;;3.08;;
70213;SDS011;60138;55.808;37.078;2023-05-07T07:22:25;4.93;;;3.60;;
70213;SDS011;60138;55.808;37.078;2023-05-07T07:24:50;4.87;;;2.70;;
70213;SDS011;60138;55.808;37.078;2023-05-07T07:27:17;4.75;;;3.08;;
70213;SDS011;60138;55.808;37.078;2023-05-07T07:29:43;3.38;;;2.47;;
70213;SDS011;60138;55.808;37.078;2023-05-07T07:32:08;3.38;;;2.53;;
70213;SDS011;60138;55.808;37.078;2023-05-07T07:34:34;5.90;;;3.17;;
70213;SDS011;60138;55.808;37.078;2023-05-07T07:37:01;3.90;;;2.58;;
70213;SDS011;60138;55.808;37.078;2023-05-07T07:39:27;5.15;;;3.42;;
70213;SDS011;60138;55.808;37.078;2023-05-07T07:41:55;7.23;;;3.47;;
70213;SDS011;60138;55.808;37.078;2023-05-07T07:44:21;4.38;;;3.40;;
70213;SDS011;60138;55.808;37.078;2023-05-07T07:46:52;4.13;;;2.72;;
70213;SDS011;60138;55.808;37.078;2023-05-07T07:49:19;4.15;;;2.70;;
70213;SDS011;60138;55.808;37.078;2023-05-07T07:51:46;23.98;;;4.72;;
70213;SDS011;60138;55.808;37.078;2023-05-07T07:54:12;5.03;;;2.70;;
70213;SDS011;60138;55.808;37.078;2023-05-07T07:56:39;4.60;;;3.47;;
70213;SDS011;60138;55.808;37.078;2023-05-07T07:59:06;4.32;;;2.67;;
70213;SDS011;60138;55.808;37.078;2023-05-07T08:01:33;4.43;;;4.03;;
70213;SDS011;60138;55.808;37.078;2023-05-07T08:04:00;3.67;;;3.28;;
70213;SDS011;60138;55.808;37.078;2023-05-07T08:06:28;9.57;;;2.97;;
70213;SDS011;60138;55.808;37.078;2023-05-07T08:08:54;7.35;;;3.70;;
70213;SDS011;60138;55.808;37.078;2023-05-07T08:11:21;4.60;;;3.05;;
70213;SDS011;60138;55.808;37.078;2023-05-07T08:13:47;4.00;;;2.67;;
70213;SDS011;60138;55.808;37.078;2023-05-07T08:16:13;4.23;;;2.77;;
70213;SDS011;60138;55.808;37.078;2023-05-07T08:18:39;19.33;;;4.13;;
70213;SDS011;60138;55.808;37.078;2023-05-07T08:21:05;9.32;;;3.83;;
70213;SDS011;60138;55.808;37.078;2023-05-07T08:23:31;7.82;;;4.50;;
70213;SDS011;60138;55.808;37.078;2023-05-07T08:25:57;2.90;;;2.47;;
70213;SDS011;60138;55.808;37.078;2023-05-07T08:28:24;6.05;;;3.15;;
70213;SDS011;60138;55.808;37.078;2023-05-07T08:30:51;5.30;;;3.38;;
70213;SDS011;60138;55.808;37.078;2023-05-07T08:33:17;4.70;;;3.17;;
70213;SDS011;60138;55.808;37.078;2023-05-07T08:35:43;3.80;;;2.85;;
70213;SDS011;60138;55.808;37.078;2023-05-07T08:38:11;4.13;;;3.00;;
70213;SDS011;60138;55.808;37.078;2023-05-07T08:40:38;5.90;;;3.30;;
70213;SDS011;60138;55.808;37.078;2023-05-07T08:43:07;3.87;;;2.87;;
70213;SDS011;60138;55.808;37.078;2023-05-07T08:45:36;12.80;;;4.22;;
70213;SDS011;60138;55.808;37.078;2023-05-07T08:48:05;14.27;;;5.03;;
70213;SDS011;60138;55.808;37.078;2023-05-07T08:50:35;7.00;;;3.70;;
70213;SDS011;60138;55.808;37.078;2023-05-07T08:53:03;16.73;;;5.88;;
70213;SDS011;60138;55.808;37.078;2023-05-07T08:55:30;42.47;;;6.80;;
70213;SDS011;60138;55.808;37.078;2023-05-07T08:57:56;22.13;;;4.07;;
70213;SDS011;60138;55.808;37.078;2023-05-07T09:00:22;7.38;;;4.05;;
70213;SDS011;60138;55.808;37.078;2023-05-07T09:02:51;14.00;;;3.50;;
70213;SDS011;60138;55.808;37.078;2023-05-07T09:05:18;5.05;;;2.67;;
70213;SDS011;60138;55.808;37.078;2023-05-07T09:07:45;5.67;;;2.97;;
70213;SDS011;60138;55.808;37.078;2023-05-07T09:10:12;5.60;;;2.92;;
70213;SDS011;60138;55.808;37.078;2023-05-07T09:12:40;3.78;;;2.80;;
70213;SDS011;60138;55.808;37.078;2023-05-07T09:15:08;3.47;;;2.13;;
70213;SDS011;60138;55.808;37.078;2023-05-07T09:17:35;4.38;;;3.50;;
70213;SDS011;60138;55.808;37.078;2023-05-07T09:20:05;5.53;;;3.03;;
70213;SDS011;60138;55.808;37.078;2023-05-07T09:22:33;6.90;;;3.80;;
70213;SDS011;60138;55.808;37.078;2023-05-07T09:25:03;4.95;;;2.90;;
70213;SDS011;60138;55.808;37.078;2023-05-07T09:27:30;3.33;;;2.27;;
70213;SDS011;60138;55.808;37.078;2023-05-07T09:29:57;4.60;;;3.20;;
70213;SDS011;60138;55.808;37.078;2023-05-07T09:32:24;3.13;;;2.75;;
70213;SDS011;60138;55.808;37.078;2023-05-07T09:34:50;4.50;;;2.80;;
70213;SDS011;60138;55.808;37.078;2023-05-07T09:37:20;3.33;;;2.90;;
70213;SDS011;60138;55.808;37.078;2023-05-07T09:39:47;6.57;;;2.65;;
70213;SDS011;60138;55.808;37.078;2023-05-07T09:42:22;5.70;;;2.63;;
70213;SDS011;60138;55.808;37.078;2023-05-07T09:44:49;7.05;;;3.10;;
70213;SDS011;60138;55.808;37.078;2023-05-07T09:47:19;4.07;;;2.97;;
70213;SDS011;60138;55.808;37.078;2023-05-07T09:49:49;4.00;;;2.53;;
70213;SDS011;60138;55.808;37.078;2023-05-07T09:52:20;4.68;;;3.05;;
70213;SDS011;60138;55.808;37.078;2023-05-07T09:54:50;5.80;;;2.75;;
70213;SDS011;60138;55.808;37.078;2023-05-07T09:57:20;3.83;;;2.53;;
70213;SDS011;60138;55.808;37.078;2023-05-07T09:59:52;4.00;;;2.60;;
70213;SDS011;60138;55.808;37.078;2023-05-07T10:02:19;4.63;;;2.87;;
70213;SDS011;60138;55.808;37.078;2023-05-07T10:04:50;5.38;;;3.25;;
70213;SDS011;60138;55.808;37.078;2023-05-07T10:07:20;10.35;;;3.28;;
70213;SDS011;60138;55.808;37.078;2023-05-07T10:09:50;11.00;;;3.80;;
70213;SDS011;60138;55.808;37.078;2023-05-07T10:12:24;5.30;;;2.90;;
70213;SDS011;60138;55.808;37.078;2023-05-07T10:14:50;7.17;;;3.23;;
70213;SDS011;60138;55.808;37.078;2023-05-07T10:17:17;4.00;;;2.97;;
70213;SDS011;60138;55.808;37.078;2023-05-07T10:19:45;4.03;;;2.80;;
70213;SDS011;60138;55.808;37.078;2023-05-07T10:22:12;4.72;;;2.95;;
70213;SDS011;60138;55.808;37.078;2023-05-07T10:24:43;3.92;;;2.50;;
70213;SDS011;60138;55.808;37.078;2023-05-07T10:27:15;19.43;;;3.80;;
70213;SDS011;60138;55.808;37.078;2023-05-07T10:32:37;4.25;;;2.88;;
70213;SDS011;60138;55.808;37.078;2023-05-07T10:35:10;5.50;;;3.78;;
70213;SDS011;60138;55.808;37.078;2023-05-07T10:37:43;3.30;;;2.40;;
70213;SDS011;60138;55.808;37.078;2023-05-07T10:40:10;3.47;;;2.20;;
70213;SDS011;60138;55.808;37.078;2023-05-07T10:42:37;7.68;;;2.97;;
70213;SDS011;60138;55.808;37.078;2023-05-07T10:45:13;10.10;;;2.83;;
70213;SDS011;60138;55.808;37.078;2023-05-07T10:50:32;4.90;;;3.50;;
70213;SDS011;60138;55.808;37.078;2023-05-07T10:55:49;3.05;;;2.63;;
70213;SDS011;60138;55.808;37.078;2023-05-07T11:01:03;4.82;;;3.05;;
70213;SDS011;60138;55.808;37.078;2023-05-07T11:03:35;6.47;;;3.85;;
70213;SDS011;60138;55.808;37.078;2023-05-07T11:06:21;6.80;;;3.23;;
70213;SDS011;60138;55.808;37.078;2023-05-07T11:08:55;4.38;;;2.72;;
70213;SDS011;60138;55.808;37.078;2023-05-07T11:11:47;14.60;;;3.10;;
70213;SDS011;60138;55.808;37.078;2023-05-07T11:17:09;57.13;;;9.45;;
70213;SDS011;60138;55.808;37.078;2023-05-07T11:19:53;6.37;;;2.43;;
70213;SDS011;60138;55.808;37.078;2023-05-07T11:22:42;22.80;;;4.03;;
70213;SDS011;60138;55.808;37.078;2023-05-07T11:25:17;10.23;;;3.25;;
70213;SDS011;60138;55.808;37.078;2023-05-07T11:27:45;5.07;;;3.22;;
70213;SDS011;60138;55.808;37.078;2023-05-07T11:30:16;4.18;;;3.05;;
70213;SDS011;60138;55.808;37.078;2023-05-07T11:32:42;5.57;;;3.50;;
70213;SDS011;60138;55.808;37.078;2023-05-07T11:35:08;28.92;;;3.60;;
70213;SDS011;60138;55.808;37.078;2023-05-07T11:37:35;4.78;;;2.80;;
70213;SDS011;60138;55.808;37.078;2023-05-07T11:40:04;3.55;;;2.30;;
70213;SDS011;60138;55.808;37.078;2023-05-07T11:42:38;3.67;;;2.38;;
70213;SDS011;60138;55.808;37.078;2023-05-07T11:45:05;168.83;;;15.20;;
70213;SDS011;60138;55.808;37.078;2023-05-07T11:47:32;6.32;;;2.45;;
70213;SDS011;60138;55.808;37.078;2023-05-07T11:50:02;10.27;;;3.97;;
70213;SDS011;60138;55.808;37.078;2023-05-07T11:52:32;5.40;;;2.35;;
70213;SDS011;60138;55.808;37.078;2023-05-07T11:54:58;3.20;;;1.60;;
70213;SDS011;60138;55.808;37.078;2023-05-07T11:57:25;3.63;;;2.33;;
70213;SDS011;60138;55.808;37.078;2023-05-07T11:59:55;3.40;;;1.77;;
70213;SDS011;60138;55.808;37.078;2023-05-07T12:02:22;6.75;;;2.33;;
70213;SDS011;60138;55.808;37.078;2023-05-07T12:04:48;10.93;;;3.15;;
70213;SDS011;60138;55.808;37.078;2023-05-07T12:07:14;15.90;;;3.60;;
70213;SDS011;60138;55.808;37.078;2023-05-07T12:09:41;18.23;;;3.50;;
70213;SDS011;60138;55.808;37.078;2023-05-07T12:12:07;12.07;;;3.35;;
70213;SDS011;60138;55.808;37.078;2023-05-07T12:14:37;9.80;;;3.10;;
70213;SDS011;60138;55.808;37.078;2023-05-07T12:17:10;7.63;;;2.77;;
70213;SDS011;60138;55.808;37.078;2023-05-07T12:19:39;6.40;;;1.90;;
70213;SDS011;60138;55.808;37.078;2023-05-07T12:22:09;5.05;;;2.10;;
70213;SDS011;60138;55.808;37.078;2023-05-07T12:24:45;4.00;;;1.95;;
70213;SDS011;60138;55.808;37.078;2023-05-07T12:27:12;8.95;;;2.15;;
70213;SDS011;60138;55.808;37.078;2023-05-07T12:29:39;5.63;;;2.10;;
70213;SDS011;60138;55.808;37.078;2023-05-07T12:32:06;7.55;;;3.17;;
70213;SDS011;60138;55.808;37.078;2023-05-07T12:34:32;7.70;;;3.15;;
70213;SDS011;60138;55.808;37.078;2023-05-07T12:37:01;6.68;;;2.60;;
70213;SDS011;60138;55.808;37.078;2023-05-07T12:39:27;5.68;;;2.80;;
70213;SDS011;60138;55.808;37.078;2023-05-07T12:44:23;3.55;;;2.38;;
70213;SDS011;60138;55.808;37.078;2023-05-07T12:46:49;4.28;;;2.78;;
70213;SDS011;60138;55.808;37.078;2023-05-07T12:49:15;5.73;;;3.10;;
70213;SDS011;60138;55.808;37.078;2023-05-07T12:51:41;5.22;;;2.40;;
70213;SDS011;60138;55.808;37.078;2023-05-07T12:54:07;9.23;;;4.07;;
70213;SDS011;60138;55.808;37.078;2023-05-07T12:56:35;6.47;;;3.13;;
70213;SDS011;60138;55.808;37.078;2023-05-07T12:59:01;11.77;;;6.22;;
70213;SDS011;60138;55.808;37.078;2023-05-07T13:01:30;9.53;;;6.30;;
70213;SDS011;60138;55.808;37.078;2023-05-07T13:04:00;9.18;;;5.60;;
70213;SDS011;60138;55.808;37.078;2023-05-07T13:06:26;14.38;;;5.28;;
70213;SDS011;60138;55.808;37.078;2023-05-07T13:08:52;4.87;;;3.67;;
70213;SDS011;60138;55.808;37.078;2023-05-07T13:11:18;8.68;;;3.22;;
70213;SDS011;60138;55.808;37.078;2023-05-07T13:13:43;4.57;;;2.80;;
70213;SDS011;60138;55.808;37.078;2023-05-07T13:16:10;8.67;;;3.40;;
70213;SDS011;60138;55.808;37.078;2023-05-07T13:18:37;8.73;;;3.63;;
70213;SDS011;60138;55.808;37.078;2023-05-07T13:21:04;7.80;;;4.40;;
70213;SDS011;60138;55.808;37.078;2023-05-07T13:23:30;23.67;;;5.10;;
70213;SDS011;60138;55.808;37.078;2023-05-07T13:25:56;16.58;;;7.65;;
70213;SDS011;60138;55.808;37.078;2023-05-07T13:28:22;4.88;;;3.35;;
70213;SDS011;60138;55.808;37.078;2023-05-07T13:30:49;22.77;;;4.35;;
70213;SDS011;60138;55.808;37.078;2023-05-07T13:33:14;12.20;;;4.60;;
70213;SDS011;60138;55.808;37.078;2023-05-07T13:35:40;5.82;;;3.08;;
70213;SDS011;60138;55.808;37.078;2023-05-07T13:38:06;5.03;;;2.83;;
70213;SDS011;60138;55.808;37.078;2023-05-07T13:40:32;4.75;;;2.45;;
70213;SDS011;60138;55.808;37.078;2023-05-07T13:42:59;5.73;;;2.10;;
70213;SDS011;60138;55.808;37.078;2023-05-07T13:45:25;7.25;;;2.05;;
70213;SDS011;60138;55.808;37.078;2023-05-07T13:47:51;5.28;;;3.63;;
70213;SDS011;60138;55.808;37.078;2023-05-07T13:50:17;9.37;;;3.50;;
70213;SDS011;60138;55.808;37.078;2023-05-07T13:52:43;8.65;;;2.95;;
70213;SDS011;60138;55.808;37.078;2023-05-07T13:55:09;5.32;;;2.10;;
70213;SDS011;60138;55.808;37.078;2023-05-07T13:57:35;22.77;;;5.30;;
70213;SDS011;60138;55.808;37.078;2023-05-07T14:00:02;23.00;;;4.65;;
70213;SDS011;60138;55.808;37.078;2023-05-07T14:02:31;5.60;;;2.50;;
70213;SDS011;60138;55.808;37.078;2023-05-07T14:04:56;5.70;;;2.50;;
70213;SDS011;60138;55.808;37.078;2023-05-07T14:07:22;7.33;;;2.67;;
70213;SDS011;60138;55.808;37.078;2023-05-07T14:09:48;10.73;;;4.15;;
70213;SDS011;60138;55.808;37.078;2023-05-07T14:12:14;20.97;;;6.17;;
70213;SDS011;60138;55.808;37.078;2023-05-07T14:14:39;19.33;;;5.55;;
70213;SDS011;60138;55.808;37.078;2023-05-07T14:17:05;15.33;;;5.07;;
70213;SDS011;60138;55.808;37.078;2023-05-07T14:19:30;15.18;;;4.07;;
70213;SDS011;60138;55.808;37.078;2023-05-07T14:21:56;12.93;;;4.40;;
70213;SDS011;60138;55.808;37.078;2023-05-07T14:24:22;22.97;;;4.50;;
70213;SDS011;60138;55.808;37.078;2023-05-07T14:26:49;19.27;;;3.28;;
70213;SDS011;60138;55.808;37.078;2023-05-07T14:29:14;10.07;;;3.15;;
70213;SDS011;60138;55.808;37.078;2023-05-07T14:31:40;14.33;;;4.60;;
70213;SDS011;60138;55.808;37.078;2023-05-07T14:34:06;26.38;;;5.68;;
70213;SDS011;60138;55.808;37.078;2023-05-07T14:36:31;12.40;;;3.20;;
70213;SDS011;60138;55.808;37.078;2023-05-07T14:38:57;3.83;;;1.70;;
70213;SDS011;60138;55.808;37.078;2023-05-07T14:41:23;8.18;;;3.05;;
70213;SDS011;60138;55.808;37.078;2023-05-07T14:43:48;8.83;;;2.20;;
70213;SDS011;60138;55.808;37.078;2023-05-07T14:46:14;7.20;;;2.60;;
70213;SDS011;60138;55.808;37.078;2023-05-07T14:48:41;10.43;;;3.97;;